Terminal Aerodrome Forecast
Issued by NWS Twin Cities, MN

Home | Current Version | Previous Version | Graphics & Text | Print | Product List | Glossary On
Versions: 1 2 3 4 5 6 7 8 9 10 11 12
313
FTUS43 KMPX 241120
TAFEAU
TAF
KEAU 241120Z 2412/2512 30009KT P6SM BKN100
     FM241600 29014G21KT P6SM VCSH BKN050
      TEMPO 2420/2423 5SM -SHRA OVC040
     FM250000 31015G22KT P6SM BKN050
     FM250100 30010KT P6SM SCT060=

USA.gov is the U.S. government's official web portal to all federal, state and local government web resources and services.